Time;durP1;ratioP1;P1;durP2;ratioP2;P2;SDS_P1;SDS_P2;PMS_P1;PMS_P2;Temp;Humidity;BMP_temperature;BMP_pressure;BME280_temperature;BME280_humidity;BME280_pressure;Samples;Min_cycle;Max_cycle;Signal;HPM_P1;HPM_P2
2022/10/01 00:00:54;;;;;;;79.00;39.60;;;;;;;10.99;88.10;98604.37;88623;1271;23185;-73
2022/10/01 00:03:10;;;;;;;83.30;37.70;;;;;;;10.98;88.13;98609.39;88453;1271;98955;-71
2022/10/01 00:05:13;;;;;;;73.80;39.50;;;;;;;10.97;88.12;98601.34;88662;1271;23985;-74
2022/10/01 00:07:15;;;;;;;72.20;39.00;;;;;;;10.97;88.12;98598.89;88515;1271;25550;-72
2022/10/01 00:09:16;;;;;;;80.70;39.20;;;;;;;10.97;88.09;98596.06;88324;1274;99564;-72
2022/10/01 00:11:21;;;;;;;84.30;39.50;;;;;;;10.97;88.12;98590.13;88360;1275;22570;-73
2022/10/01 00:13:24;;;;;;;69.80;37.00;;;;;;;10.96;88.12;98588.58;88522;1274;22948;-73
2022/10/01 00:15:26;;;;;;;77.90;38.40;;;;;;;10.94;88.17;98586.75;88280;1273;97693;-73
2022/10/01 00:17:29;;;;;;;75.10;39.20;;;;;;;10.94;88.21;98592.41;88435;1273;24470;-73
2022/10/01 00:19:30;;;;;;;76.10;36.70;;;;;;;10.94;88.23;98592.76;88553;1271;23335;-73
2022/10/01 00:21:32;;;;;;;79.20;39.80;;;;;;;10.92;88.13;98590.41;88351;1273;100028;-70
2022/10/01 00:23:34;;;;;;;69.60;38.20;;;;;;;10.91;88.19;98594.64;88471;1272;22545;-72
2022/10/01 00:25:35;;;;;;;74.40;38.40;;;;;;;10.90;88.20;98592.45;88368;1271;99188;-74
2022/10/01 00:27:37;;;;;;;76.30;38.30;;;;;;;10.87;88.09;98587.48;88334;1274;26633;-72
2022/10/01 00:29:39;;;;;;;84.20;40.90;;;;;;;10.87;88.09;98582.59;88506;1273;22890;-73
2022/10/01 00:31:42;;;;;;;74.50;37.80;;;;;;;10.86;88.22;98581.54;88373;1273;97921;-73
2022/10/01 00:33:43;;;;;;;89.90;39.30;;;;;;;10.86;88.17;98583.16;88697;1275;22719;-72
2022/10/01 00:35:45;;;;;;;78.10;38.10;;;;;;;10.86;88.17;98585.45;88587;1273;23089;-73
2022/10/01 00:37:49;;;;;;;77.00;39.70;;;;;;;10.85;88.20;98593.39;88273;1273;99180;-73
2022/10/01 00:39:54;;;;;;;84.90;40.90;;;;;;;10.85;88.25;98589.73;88628;1271;22734;-73
2022/10/01 00:41:55;;;;;;;80.70;39.80;;;;;;;10.88;88.28;98593.95;88659;1271;23559;-73
2022/10/01 00:44:31;;;;;;;79.40;41.00;;;;;;;10.89;88.20;98599.70;88367;1273;106544;-74
2022/10/01 00:46:44;;;;;;;75.30;38.80;;;;;;;10.88;88.27;98591.46;88803;1272;22495;-73
2022/10/01 00:48:57;;;;;;;77.60;38.60;;;;;;;10.87;88.20;98592.96;88624;1275;24325;-73
2022/10/01 00:50:59;;;;;;;72.70;38.40;;;;;;;10.85;88.24;98594.10;88536;1273;97943;-70
2022/10/01 00:53:07;;;;;;;79.10;38.40;;;;;;;10.86;88.34;98590.72;88536;1273;22563;-72
2022/10/01 00:55:35;;;;;;;78.30;39.70;;;;;;;10.88;88.24;98589.02;88700;1271;24193;-73
2022/10/01 00:57:38;;;;;;;79.90;39.70;;;;;;;10.88;88.34;98591.46;88601;1274;22576;-73
2022/10/01 00:59:40;;;;;;;76.90;38.50;;;;;;;10.90;88.33;98591.21;88691;1271;22846;-73
2022/10/01 01:01:42;;;;;;;77.90;40.00;;;;;;;10.91;88.29;98584.98;88500;1273;99160;-73
2022/10/01 01:03:43;;;;;;;71.70;40.10;;;;;;;10.92;88.27;98583.69;88672;1273;24769;-74
2022/10/01 01:05:46;;;;;;;74.50;39.00;;;;;;;10.94;88.32;98588.17;88617;1271;23078;-73
2022/10/01 01:07:52;;;;;;;76.60;40.40;;;;;;;10.94;88.30;98583.77;88523;1272;99460;-73
2022/10/01 01:09:55;;;;;;;78.00;38.80;;;;;;;10.95;88.39;98579.66;88671;1273;22558;-72
2022/10/01 01:12:12;;;;;;;72.00;38.10;;;;;;;10.97;88.32;98576.42;88486;1273;22586;-74
2022/10/01 01:14:23;;;;;;;64.50;37.90;;;;;;;10.98;88.28;98572.48;88630;1272;99048;-73
2022/10/01 01:16:32;;;;;;;67.80;39.60;;;;;;;10.98;88.28;98569.65;88477;1273;27373;-73
2022/10/01 01:18:43;;;;;;;70.90;40.70;;;;;;;10.99;88.32;98568.70;88455;1273;24215;-72
2022/10/01 01:21:13;;;;;;;78.80;40.60;;;;;;;11.00;88.42;98572.73;88590;1271;99088;-72
2022/10/01 01:23:15;;;;;;;65.90;39.00;;;;;;;11.00;88.29;98573.42;88667;1271;23494;-71
2022/10/01 01:25:23;;;;;;;81.10;39.50;;;;;;;11.00;88.34;98580.95;88551;1271;22550;-73
2022/10/01 01:27:40;;;;;;;73.10;39.40;;;;;;;11.00;88.26;98583.21;88575;1271;98109;-74
2022/10/01 01:30:03;;;;;;;77.30;39.10;;;;;;;11.01;88.27;98575.66;88583;1274;22544;-73
2022/10/01 01:32:11;;;;;;;70.40;39.40;;;;;;;11.00;88.39;98575.35;88559;1271;99182;-73
2022/10/01 01:34:21;;;;;;;70.90;39.00;;;;;;;10.99;88.28;98575.75;88552;1273;22591;-72
2022/10/01 01:36:30;;;;;;;72.90;36.60;;;;;;;10.99;88.29;98580.52;88532;1273;22675;-72
2022/10/01 01:38:48;;;;;;;76.40;39.50;;;;;;;10.96;88.23;98587.33;88366;1275;98880;-72
2022/10/01 01:40:54;;;;;;;72.10;39.90;;;;;;;10.93;88.12;98586.98;88636;1273;22573;-73
2022/10/01 01:43:04;;;;;;;73.90;40.40;;;;;;;10.91;88.22;98588.67;88580;1273;22552;-73
2022/10/01 01:45:12;;;;;;;77.90;40.60;;;;;;;10.89;88.19;98588.80;88659;1271;97967;-72
2022/10/01 01:47:15;;;;;;;75.80;40.90;;;;;;;10.86;88.15;98590.37;88758;1271;22709;-73
2022/10/01 01:49:19;;;;;;;86.40;42.10;;;;;;;10.83;88.23;98591.58;88558;1274;22660;-70
2022/10/01 01:51:31;;;;;;;75.40;41.80;;;;;;;10.83;88.24;98591.06;88442;1274;99170;-73
2022/10/01 01:53:33;;;;;;;85.90;43.30;;;;;;;10.82;88.24;98591.82;88585;1274;22550;-73
2022/10/01 01:55:36;;;;;;;83.30;41.40;;;;;;;10.81;88.21;98587.52;88582;1273;26642;-73
2022/10/01 01:57:43;;;;;;;83.50;43.10;;;;;;;10.79;88.22;98588.67;88323;1275;99184;-72
2022/10/01 01:59:45;;;;;;;79.30;42.30;;;;;;;10.78;88.23;98584.14;88735;1271;22554;-72
2022/10/01 02:01:48;;;;;;;79.40;40.00;;;;;;;10.77;88.12;98587.19;88580;1276;25463;-72
2022/10/01 02:03:50;;;;;;;89.00;44.30;;;;;;;10.75;88.23;98590.48;88684;1276;22712;-72
2022/10/01 02:06:30;;;;;;;81.80;42.60;;;;;;;10.74;88.25;98595.25;88642;1271;22636;-72
2022/10/01 02:08:46;;;;;;;90.60;44.70;;;;;;;10.73;88.39;98601.08;88254;1278;99236;-72
2022/10/01 02:11:13;;;;;;;91.90;42.70;;;;;;;10.73;88.29;98603.00;88297;1280;22829;-72
2022/10/01 02:13:42;;;;;;;77.00;40.70;;;;;;;10.73;88.42;98605.98;88188;1278;25448;-73
2022/10/01 02:16:18;;;;;;;81.30;42.90;;;;;;;10.72;88.41;98610.45;88202;1278;99012;-72
2022/10/01 02:18:55;;;;;;;85.90;44.10;;;;;;;10.72;88.36;98608.52;88130;1277;23414;-72
2022/10/01 02:21:23;;;;;;;85.60;42.10;;;;;;;10.72;88.41;98604.30;88124;1278;97833;-73
2022/10/01 02:23:29;;;;;;;96.20;45.80;;;;;;;10.73;88.45;98608.15;88211;1277;22691;-72
2022/10/01 02:25:38;;;;;;;87.90;43.70;;;;;;;10.73;88.29;98608.83;88091;1281;22660;-73
2022/10/01 02:27:48;;;;;;;80.20;44.30;;;;;;;10.75;88.40;98612.09;88112;1278;100601;-73
2022/10/01 02:29:51;;;;;;;93.50;43.40;;;;;;;10.75;88.48;98610.85;88368;1277;22653;-72
2022/10/01 02:31:55;;;;;;;97.80;46.60;;;;;;;10.74;88.43;98610.70;88301;1278;99315;-72
2022/10/01 02:34:00;;;;;;;80.50;42.50;;;;;;;10.74;88.36;98605.78;88411;1278;22567;-72
2022/10/01 02:36:05;;;;;;;89.90;41.70;;;;;;;10.72;88.41;98607.14;88268;1278;22560;-72
2022/10/01 02:38:10;;;;;;;82.30;41.60;;;;;;;10.73;88.35;98611.62;88261;1278;99221;-73
2022/10/01 02:40:16;;;;;;;81.10;42.50;;;;;;;10.72;88.41;98616.77;88258;1281;24309;-72
2022/10/01 02:42:21;;;;;;;91.80;43.50;;;;;;;10.73;88.35;98616.04;88387;1278;25244;-71
2022/10/01 02:44:31;;;;;;;90.80;43.90;;;;;;;10.73;88.49;98618.83;88236;1275;99133;-72
2022/10/01 02:47:03;;;;;;;88.50;45.30;;;;;;;10.73;88.45;98621.97;88377;1275;22650;-72
2022/10/01 02:49:05;;;;;;;90.00;43.20;;;;;;;10.74;88.39;98620.70;88545;1271;22673;-72
2022/10/01 02:51:41;;;;;;;95.40;44.40;;;;;;;10.76;88.44;98628.90;88334;1274;98018;-72
2022/10/01 02:53:48;;;;;;;88.90;43.80;;;;;;;10.75;88.43;98624.34;88648;1271;23334;-73
2022/10/01 02:55:52;;;;;;;87.60;44.00;;;;;;;10.76;88.42;98617.28;88602;1274;99180;-71
2022/10/01 02:57:55;;;;;;;94.20;44.40;;;;;;;10.77;88.47;98623.56;88602;1274;22570;-73
2022/10/01 03:00:00;;;;;;;93.90;43.90;;;;;;;10.78;88.50;98622.11;88470;1274;22597;-72
2022/10/01 03:02:03;;;;;;;92.60;44.80;;;;;;;10.78;88.49;98623.66;88628;1273;99353;-72
2022/10/01 03:04:04;;;;;;;93.90;45.00;;;;;;;10.78;88.37;98625.24;88725;1274;23866;-72
2022/10/01 03:06:06;;;;;;;92.70;46.20;;;;;;;10.79;88.48;98623.06;88670;1274;25483;-73
2022/10/01 03:08:07;;;;;;;79.80;45.50;;;;;;;10.81;88.37;98624.20;88525;1274;99112;-74
2022/10/01 03:10:10;;;;;;;85.80;43.40;;;;;;;10.81;88.38;98625.77;88368;1275;22743;-73
2022/10/01 03:12:12;;;;;;;89.80;45.80;;;;;;;10.81;88.33;98625.25;88510;1273;22803;-73
2022/10/01 03:14:14;;;;;;;87.00;44.50;;;;;;;10.82;88.42;98631.00;88349;1275;99645;-73
2022/10/01 03:16:15;;;;;;;92.90;44.70;;;;;;;10.81;88.36;98627.03;88550;1271;22893;-72
2022/10/01 03:18:17;;;;;;;80.20;43.00;;;;;;;10.83;88.46;98628.00;88461;1274;23184;-72
2022/10/01 03:20:19;;;;;;;76.10;43.80;;;;;;;10.79;88.39;98621.01;88420;1273;99085;-72
2022/10/01 03:22:22;;;;;;;85.70;46.30;;;;;;;10.80;88.40;98626.73;88464;1274;23257;-73
2022/10/01 03:24:24;;;;;;;86.00;44.00;;;;;;;10.79;88.27;98632.04;88514;1271;22562;-72
2022/10/01 03:26:26;;;;;;;88.40;45.60;;;;;;;10.78;88.44;98630.52;88409;1275;99017;-73
2022/10/01 03:28:28;;;;;;;88.00;47.00;;;;;;;10.77;88.35;98628.30;88522;1274;22617;-73
2022/10/01 03:30:31;;;;;;;90.30;43.90;;;;;;;10.76;88.34;98625.73;88444;1273;22864;-73
2022/10/01 03:32:33;;;;;;;82.40;46.30;;;;;;;10.75;88.35;98629.83;88473;1274;99540;-71
2022/10/01 03:34:35;;;;;;;88.10;43.40;;;;;;;10.74;88.38;98633.73;88690;1273;24295;-73
2022/10/01 03:36:37;;;;;;;79.20;45.20;;;;;;;10.72;88.27;98633.28;88538;1273;22709;-72
2022/10/01 03:38:39;;;;;;;76.80;43.70;;;;;;;10.72;88.43;98632.91;88394;1271;99059;-73
2022/10/01 03:40:40;;;;;;;82.80;46.10;;;;;;;10.73;88.40;98625.88;88568;1271;23115;-73
2022/10/01 03:42:42;;;;;;;77.20;44.10;;;;;;;10.72;88.32;98623.63;88512;1271;22670;-71
2022/10/01 03:44:44;;;;;;;82.20;44.30;;;;;;;10.72;88.36;98625.53;88512;1274;99024;-72
2022/10/01 03:46:45;;;;;;;77.50;43.40;;;;;;;10.72;88.37;98621.52;88621;1274;22574;-73
2022/10/01 03:48:48;;;;;;;77.60;43.00;;;;;;;10.71;88.42;98617.91;88486;1274;22725;-73
2022/10/01 03:50:58;;;;;;;82.50;44.90;;;;;;;10.70;88.30;98617.75;88228;1275;99002;-73
2022/10/01 03:53:00;;;;;;;77.50;42.40;;;;;;;10.70;88.36;98620.58;88522;1274;22571;-72
2022/10/01 03:55:02;;;;;;;78.10;43.40;;;;;;;10.69;88.30;98620.12;88540;1274;25261;-74
2022/10/01 03:57:04;;;;;;;80.00;43.40;;;;;;;10.69;88.42;98622.58;88365;1274;99066;-74
2022/10/01 03:59:06;;;;;;;79.00;43.00;;;;;;;10.68;88.38;98617.87;88475;1275;22534;-72
2022/10/01 04:01:08;;;;;;;86.30;44.80;;;;;;;10.68;88.25;98616.15;88533;1271;22577;-73
2022/10/01 04:03:11;;;;;;;81.80;44.80;;;;;;;10.67;88.32;98612.13;88266;1274;97909;-70
2022/10/01 04:05:13;;;;;;;81.50;43.60;;;;;;;10.67;88.30;98605.98;88694;1274;24250;-73
2022/10/01 04:07:15;;;;;;;77.50;44.40;;;;;;;10.67;88.38;98599.46;88379;1274;22722;-72
2022/10/01 04:09:17;;;;;;;76.60;42.80;;;;;;;10.68;88.32;98601.20;88405;1273;99132;-74
2022/10/01 04:11:18;;;;;;;76.60;43.30;;;;;;;10.68;88.27;98597.68;88455;1274;22619;-73
2022/10/01 04:13:20;;;;;;;84.30;43.80;;;;;;;10.69;88.33;98594.66;88448;1274;23230;-72
2022/10/01 04:15:23;;;;;;;84.10;44.20;;;;;;;10.68;88.38;98587.63;88232;1277;99534;-72
2022/10/01 04:17:26;;;;;;;79.70;42.00;;;;;;;10.69;88.38;98586.88;88356;1274;22651;-73
2022/10/01 04:19:28;;;;;;;77.20;42.10;;;;;;;10.69;88.26;98590.41;88477;1274;22589;-73
2022/10/01 04:21:30;;;;;;;79.30;45.20;;;;;;;10.69;88.41;98585.68;88366;1271;99174;-73
2022/10/01 04:23:33;;;;;;;77.00;41.10;;;;;;;10.69;88.35;98587.77;88515;1271;25064;-73
2022/10/01 04:25:34;;;;;;;76.80;41.60;;;;;;;10.68;88.21;98587.14;88449;1274;22938;-72
2022/10/01 04:27:37;;;;;;;78.10;42.20;;;;;;;10.65;88.22;98593.42;88391;1273;100103;-73
2022/10/01 04:29:40;;;;;;;75.80;43.90;;;;;;;10.63;88.21;98593.54;88435;1275;24237;-72
2022/10/01 04:31:41;;;;;;;75.30;42.40;;;;;;;10.61;88.27;98597.00;88602;1271;25532;-72
2022/10/01 04:33:44;;;;;;;78.30;41.70;;;;;;;10.62;88.32;98593.42;88522;1273;98946;-73
2022/10/01 04:35:46;;;;;;;79.40;43.10;;;;;;;10.64;88.36;98586.81;88504;1274;22567;-72
2022/10/01 04:38:00;;;;;;;84.10;42.30;;;;;;;10.65;88.38;98585.00;88568;1274;26909;-73
2022/10/01 04:40:02;;;;;;;82.40;43.10;;;;;;;10.66;88.33;98583.88;88457;1271;25507;-71
2022/10/01 04:42:05;;;;;;;76.20;40.80;;;;;;;10.67;88.34;98582.95;88620;1273;22596;-71
2022/10/01 04:44:06;;;;;;;71.00;40.10;;;;;;;10.67;88.34;98589.14;88554;1275;99661;-71
2022/10/01 04:46:08;;;;;;;65.30;39.00;;;;;;;10.64;88.25;98590.14;88606;1273;22637;-72
2022/10/01 04:48:10;;;;;;;72.90;41.00;;;;;;;10.62;88.24;98596.42;88679;1271;22551;-71
2022/10/01 04:50:12;;;;;;;73.50;41.00;;;;;;;10.60;88.26;98589.86;88314;1272;99117;-72
2022/10/01 04:52:14;;;;;;;78.10;42.20;;;;;;;10.59;88.14;98587.07;88541;1271;22648;-72
2022/10/01 04:54:16;;;;;;;74.20;41.40;;;;;;;10.53;88.28;98578.09;88551;1271;22752;-71
2022/10/01 04:56:18;;;;;;;75.40;41.50;;;;;;;10.58;88.22;98587.89;88391;1271;99201;-71
2022/10/01 04:58:20;;;;;;;79.90;41.30;;;;;;;10.58;88.16;98589.29;88537;1274;24384;-72
2022/10/01 05:00:25;;;;;;;74.60;41.50;;;;;;;10.54;88.24;98588.21;88498;1271;22571;-71
2022/10/01 05:02:28;;;;;;;77.10;42.00;;;;;;;10.54;88.12;98587.17;88593;1271;98909;-71
2022/10/01 05:04:32;;;;;;;69.50;41.50;;;;;;;10.54;88.34;98586.12;88538;1271;23249;-70
2022/10/01 05:06:34;;;;;;;77.10;42.40;;;;;;;10.54;88.42;98585.08;88499;1275;22646;-72
2022/10/01 05:08:36;;;;;;;81.30;42.60;;;;;;;10.48;88.39;98582.20;88541;1271;100507;-71
2022/10/01 05:10:38;;;;;;;74.10;43.00;;;;;;;10.57;88.49;98591.43;88475;1275;22552;-71
2022/10/01 05:12:41;;;;;;;80.60;43.60;;;;;;;10.58;88.32;98592.95;88487;1273;22839;-71
2022/10/01 05:14:42;;;;;;;81.20;42.50;;;;;;;10.59;88.35;98591.34;88606;1271;99384;-71
2022/10/01 05:16:45;;;;;;;88.40;43.50;;;;;;;10.58;88.39;98591.55;88533;1271;22773;-72
2022/10/01 05:18:46;;;;;;;80.50;43.60;;;;;;;10.57;88.32;98588.98;88599;1271;23544;-71
2022/10/01 05:20:51;;;;;;;76.10;42.80;;;;;;;10.56;88.41;98588.50;88572;1271;98051;-72
2022/10/01 05:22:53;;;;;;;85.50;44.40;;;;;;;10.56;88.40;98585.84;88600;1271;23395;-73
2022/10/01 05:24:55;;;;;;;87.50;45.10;;;;;;;10.57;88.34;98584.06;88539;1271;22527;-71
2022/10/01 05:26:58;;;;;;;88.00;45.20;;;;;;;10.56;88.60;98582.85;88452;1271;98910;-72
2022/10/01 05:29:01;;;;;;;85.20;47.40;;;;;;;10.60;88.47;98588.09;88558;1271;24224;-71
2022/10/01 05:31:03;;;;;;;92.50;48.00;;;;;;;10.63;88.47;98592.13;88618;1271;23070;-72
2022/10/01 05:33:06;;;;;;;80.60;46.10;;;;;;;10.67;88.58;98594.92;88490;1271;99376;-72
2022/10/01 05:35:08;;;;;;;84.10;46.20;;;;;;;10.68;88.47;98593.09;88577;1272;22566;-71
2022/10/01 05:37:10;;;;;;;82.30;44.90;;;;;;;10.71;88.53;98595.73;88567;1273;24743;-71
2022/10/01 05:39:13;;;;;;;79.00;44.60;;;;;;;10.73;88.54;98597.77;88256;1274;98936;-71
2022/10/01 05:41:15;;;;;;;77.10;46.10;;;;;;;10.75;88.49;98602.61;88522;1273;24217;-71
2022/10/01 05:43:17;;;;;;;86.50;46.90;;;;;;;10.76;88.56;98598.99;88612;1273;22566;-71
2022/10/01 05:45:21;;;;;;;90.50;47.00;;;;;;;10.74;88.50;98598.21;88535;1271;98959;-72
2022/10/01 05:47:23;;;;;;;80.90;45.10;;;;;;;10.80;88.61;98601.79;88660;1273;25337;-72
2022/10/01 05:49:27;;;;;;;85.30;46.20;;;;;;;10.81;88.63;98601.70;88472;1273;22599;-72
2022/10/01 05:51:29;;;;;;;88.70;46.50;;;;;;;10.83;88.52;98600.58;88487;1271;99538;-71
2022/10/01 05:53:31;;;;;;;83.80;46.50;;;;;;;10.85;88.64;98598.17;88672;1271;22618;-71
2022/10/01 05:55:34;;;;;;;81.40;46.80;;;;;;;10.87;88.51;98598.59;88561;1273;22554;-73
2022/10/01 05:57:36;;;;;;;86.40;46.40;;;;;;;10.90;88.63;98598.77;88491;1273;99089;-71
2022/10/01 05:59:39;;;;;;;89.10;46.60;;;;;;;10.91;88.66;98596.95;88483;1273;22601;-72
2022/10/01 06:01:40;;;;;;;75.30;44.50;;;;;;;10.94;88.55;98598.02;88568;1274;24148;-72
2022/10/01 06:03:43;;;;;;;80.60;43.50;;;;;;;10.93;88.58;98594.17;88486;1273;99016;-72
2022/10/01 06:05:45;;;;;;;78.50;44.40;;;;;;;10.94;88.47;98594.35;88572;1272;23792;-71
2022/10/01 06:07:47;;;;;;;86.00;45.80;;;;;;;10.93;88.54;98592.98;88481;1273;26580;-72
2022/10/01 06:09:49;;;;;;;83.00;44.80;;;;;;;10.93;88.57;98589.79;88342;1273;99440;-71
2022/10/01 06:11:51;;;;;;;83.30;44.80;;;;;;;10.95;88.61;98591.09;88592;1271;24392;-72
2022/10/01 06:13:53;;;;;;;79.50;45.10;;;;;;;10.96;88.55;98590.84;88618;1271;23019;-72
2022/10/01 06:15:54;;;;;;;77.40;43.90;;;;;;;10.97;88.56;98595.35;88594;1273;98932;-72
2022/10/01 06:18:01;;;;;;;83.90;44.30;;;;;;;10.96;88.57;98592.44;88638;1273;22586;-72
2022/10/01 06:20:02;;;;;;;76.50;44.30;;;;;;;10.97;88.53;98593.45;88606;1271;99785;-71
2022/10/01 06:22:05;;;;;;;76.40;44.00;;;;;;;10.97;88.56;98589.73;88535;1273;23286;-72
2022/10/01 06:24:09;;;;;;;83.40;46.10;;;;;;;10.99;88.60;98589.30;88715;1273;23416;-72
2022/10/01 06:26:10;;;;;;;81.90;44.60;;;;;;;11.02;88.53;98590.16;88575;1273;99584;-73
2022/10/01 06:28:13;;;;;;;80.10;44.60;;;;;;;11.05;88.56;98582.79;88805;1271;22625;-72
2022/10/01 06:30:15;;;;;;;77.50;44.90;;;;;;;11.09;88.68;98584.16;88624;1271;22512;-72
2022/10/01 06:32:18;;;;;;;89.20;46.60;;;;;;;11.12;88.67;98581.89;88655;1271;99029;-72
2022/10/01 06:34:20;;;;;;;83.20;45.80;;;;;;;11.15;88.68;98582.80;88430;1273;22760;-72
2022/10/01 06:36:22;;;;;;;85.20;45.10;;;;;;;11.16;88.69;98584.67;88629;1272;22696;-72
2022/10/01 06:38:25;;;;;;;81.60;43.20;;;;;;;11.18;88.56;98582.95;88461;1272;97943;-71
2022/10/01 06:40:30;;;;;;;82.80;44.00;;;;;;;11.20;88.55;98584.25;88632;1271;22799;-71
2022/10/01 06:42:32;;;;;;;79.30;44.90;;;;;;;11.21;88.59;98582.80;88587;1271;22611;-72
2022/10/01 06:44:34;;;;;;;80.10;45.30;;;;;;;11.22;88.61;98582.02;88390;1273;99106;-71
2022/10/01 06:46:36;;;;;;;91.40;46.10;;;;;;;11.23;88.55;98584.08;88583;1273;23338;-72
2022/10/01 06:48:39;;;;;;;80.80;47.20;;;;;;;11.24;88.54;98581.69;88609;1271;22621;-71
2022/10/01 06:50:42;;;;;;;83.80;46.10;;;;;;;11.27;88.50;98580.88;88570;1271;99032;-74
2022/10/01 06:52:50;;;;;;;80.90;43.50;;;;;;;11.30;88.68;98577.34;88542;1271;25540;-71
2022/10/01 06:54:52;;;;;;;85.40;45.90;;;;;;;11.32;88.52;98579.36;88658;1271;22649;-70
2022/10/01 06:56:54;;;;;;;88.30;45.00;;;;;;;11.32;88.51;98576.87;88567;1273;98902;-73
2022/10/01 06:58:55;;;;;;;80.00;42.00;;;;;;;11.35;88.66;98580.95;88474;1274;26695;-71
2022/10/01 07:01:00;;;;;;;86.70;44.80;;;;;;;11.34;88.47;98584.50;88500;1273;22981;-72
2022/10/01 07:03:05;;;;;;;73.70;44.10;;;;;;;11.36;88.54;98581.59;88410;1273;99136;-71
2022/10/01 07:05:08;;;;;;;84.10;46.40;;;;;;;11.37;88.53;98579.05;88417;1273;22579;-72
2022/10/01 07:07:09;;;;;;;78.30;42.40;;;;;;;11.40;88.66;98577.28;88492;1273;22568;-71
2022/10/01 07:09:11;;;;;;;84.40;45.30;;;;;;;11.41;88.64;98571.09;88627;1271;99179;-74
2022/10/01 07:11:13;;;;;;;76.70;44.90;;;;;;;11.43;88.48;98571.31;88546;1271;25852;-71
2022/10/01 07:13:19;;;;;;;79.20;44.20;;;;;;;11.45;88.55;98571.73;88587;1271;23306;-73
2022/10/01 07:15:21;;;;;;;77.80;43.20;;;;;;;11.47;88.59;98570.55;88562;1271;99006;-71
2022/10/01 07:17:23;;;;;;;74.60;40.60;;;;;;;11.49;88.55;98570.09;88603;1271;23233;-73
2022/10/01 07:19:25;;;;;;;73.30;40.80;;;;;;;11.50;88.52;98566.55;88538;1273;22789;-72
2022/10/01 07:21:26;;;;;;;68.50;40.30;;;;;;;11.50;88.47;98560.52;88522;1271;97906;-72
2022/10/01 07:23:29;;;;;;;75.40;41.50;;;;;;;11.53;88.51;98563.17;88424;1274;22784;-72
2022/10/01 07:25:31;;;;;;;76.90;42.40;;;;;;;11.56;88.60;98558.40;88626;1271;22725;-73
2022/10/01 07:27:36;;;;;;;79.80;41.60;;;;;;;11.61;88.51;98557.09;88500;1271;99018;-71
2022/10/01 07:29:43;;;;;;;78.70;41.90;;;;;;;11.65;88.56;98558.61;88546;1273;22674;-73
2022/10/01 07:31:47;;;;;;;72.70;42.80;;;;;;;11.68;88.51;98554.52;88574;1273;24452;-72
2022/10/01 07:33:57;;;;;;;71.00;41.60;;;;;;;11.72;88.46;98556.92;88531;1271;99585;-72
2022/10/01 07:36:01;;;;;;;66.10;40.10;;;;;;;11.74;88.41;98556.30;88623;1271;23392;-73
2022/10/01 07:38:06;;;;;;;69.70;39.40;;;;;;;11.73;88.29;98557.20;88663;1271;99084;-72
2022/10/01 07:40:08;;;;;;;62.20;39.20;;;;;;;11.74;88.31;98546.98;88686;1271;22570;-72
2022/10/01 07:42:10;;;;;;;66.30;40.30;;;;;;;11.77;88.44;98546.59;88803;1271;25095;-73
2022/10/01 07:44:12;;;;;;;68.70;39.30;;;;;;;11.83;88.41;98554.69;88563;1271;99108;-73
2022/10/01 07:46:13;;;;;;;69.80;40.50;;;;;;;11.87;88.40;98555.36;88689;1271;22702;-72
2022/10/01 07:48:15;;;;;;;63.90;38.70;;;;;;;11.90;88.46;98554.44;88579;1273;25415;-72
2022/10/01 07:50:17;;;;;;;72.90;41.40;;;;;;;11.93;88.43;98554.98;88468;1273;99146;-72
2022/10/01 07:52:19;;;;;;;77.80;40.70;;;;;;;11.94;88.49;98548.08;88607;1271;22609;-73
2022/10/01 07:54:23;;;;;;;69.10;40.00;;;;;;;11.97;88.24;98549.84;88293;1274;23732;-71
2022/10/01 07:56:25;;;;;;;73.60;41.90;;;;;;;11.99;88.31;98544.98;88533;1273;98991;-72
2022/10/01 07:58:27;;;;;;;68.30;39.30;;;;;;;11.98;88.21;98542.04;88535;1271;23425;-72
2022/10/01 08:00:31;;;;;;;68.40;41.70;;;;;;;12.04;88.20;98551.66;88574;1271;22634;-74
2022/10/01 08:02:35;;;;;;;65.20;39.40;;;;;;;12.06;88.18;98551.63;88510;1273;98558;-73
2022/10/01 08:06:57;;;;;;;75.80;40.50;;;;;;;12.07;88.28;98551.16;88528;1271;22593;-73
2022/10/01 08:08:59;;;;;;;66.50;40.70;;;;;;;12.07;88.14;98549.93;88556;1271;100958;-72
2022/10/01 08:11:02;;;;;;;78.10;41.20;;;;;;;12.08;88.16;98551.27;88623;1270;22607;-72
2022/10/01 08:13:15;;;;;;;67.40;40.90;;;;;;;12.09;88.02;98548.55;88820;1271;22551;-74
2022/10/01 08:15:17;;;;;;;70.90;42.50;;;;;;;12.11;88.20;98542.49;88644;1273;98560;-74
2022/10/01 08:17:34;;;;;;;69.30;42.10;;;;;;;12.12;88.07;98542.23;88914;1273;24178;-73
2022/10/01 08:19:36;;;;;;;74.10;38.90;;;;;;;12.14;88.06;98541.30;88749;1271;22587;-75
2022/10/01 08:21:38;;;;;;;67.70;39.00;;;;;;;12.12;88.23;98538.57;88688;1271;98006;-73
2022/10/01 08:23:40;;;;;;;66.50;39.90;;;;;;;12.12;87.93;98538.23;88734;1271;23223;-75
2022/10/01 08:25:43;;;;;;;71.00;38.10;;;;;;;12.13;87.97;98537.27;88597;1274;22639;-74
2022/10/01 08:27:44;;;;;;;61.00;37.20;;;;;;;12.13;88.04;98533.91;88562;1273;99417;-74
2022/10/01 08:29:47;;;;;;;62.40;36.50;;;;;;;12.12;87.99;98532.36;88762;1273;22581;-71
2022/10/01 08:31:49;;;;;;;63.90;37.20;;;;;;;12.12;87.88;98528.70;88631;1274;24152;-72
2022/10/01 08:33:51;;;;;;;60.00;35.10;;;;;;;12.13;87.93;98532.02;88775;1271;98039;-73
2022/10/01 08:35:52;;;;;;;58.00;34.10;;;;;;;12.11;87.83;98533.02;88551;1274;22580;-74
2022/10/01 08:37:59;;;;;;;61.30;35.60;;;;;;;12.09;87.95;98536.78;88715;1273;24238;-73
2022/10/01 08:40:01;;;;;;;66.50;36.70;;;;;;;12.08;87.72;98535.23;88705;1273;98963;-74
2022/10/01 08:42:24;;;;;;;58.90;34.50;;;;;;;12.06;87.81;98528.56;88664;1274;22601;-73
2022/10/01 08:44:31;;;;;;;56.80;33.50;;;;;;;12.12;87.93;98532.26;88770;1271;97781;-74
2022/10/01 08:46:35;;;;;;;59.70;33.40;;;;;;;12.10;87.85;98532.14;88698;1273;23183;-74
2022/10/01 08:48:55;;;;;;;65.30;36.40;;;;;;;12.10;87.80;98531.79;88556;1274;22911;-74
2022/10/01 08:51:20;;;;;;;67.50;35.30;;;;;;;12.11;87.85;98527.71;88761;1271;99105;-74
2022/10/01 08:53:46;;;;;;;61.40;34.20;;;;;;;12.11;87.96;98524.17;88730;1273;25569;-74
2022/10/01 08:55:50;;;;;;;59.70;34.40;;;;;;;12.13;87.61;98519.16;88614;1273;22717;-74
2022/10/01 08:57:59;;;;;;;50.80;33.50;;;;;;;12.14;87.77;98518.56;88485;1276;99093;-74
2022/10/01 09:00:06;;;;;;;60.80;33.00;;;;;;;12.15;87.70;98513.55;88527;1274;22571;-74
2022/10/01 09:02:14;;;;;;;61.60;35.50;;;;;;;12.16;87.94;98509.45;88614;1273;98514;-74
2022/10/01 09:04:16;;;;;;;55.20;35.10;;;;;;;12.16;87.72;98509.23;88755;1271;22550;-74
2022/10/01 09:06:24;;;;;;;58.70;33.10;;;;;;;12.16;87.80;98502.92;88719;1273;22573;-74
2022/10/01 09:09:34;;;;;;;57.60;34.20;;;;;;;12.16;87.73;98499.95;88701;1273;99283;-73
2022/10/01 09:11:59;;;;;;;57.90;33.30;;;;;;;12.15;87.77;98499.99;88071;1283;22710;-75
2022/10/01 09:14:43;;;;;;;54.40;31.50;;;;;;;12.17;87.66;98502.52;87975;1283;22644;-74
2022/10/01 09:17:01;;;;;;;60.50;33.10;;;;;;;12.18;87.76;98493.98;88058;1283;22611;-74
2022/10/01 09:19:33;;;;;;;69.70;33.50;;;;;;;12.21;87.72;98495.22;88184;1283;23268;-74
2022/10/01 09:21:34;;;;;;;;;;;;;;;12.23;87.67;98491.20;88044;1283;98266;-74
2022/10/01 09:23:51;;;;;;;49.90;29.70;;;;;;;12.22;87.73;98483.85;88113;1283;23462;-76
2022/10/01 09:25:52;;;;;;;57.50;31.20;;;;;;;12.24;87.77;98487.81;87863;1285;24116;-75
2022/10/01 09:28:01;;;;;;;60.70;32.70;;;;;;;12.27;87.81;98484.98;87684;1284;99006;-74
2022/10/01 09:30:10;;;;;;;57.90;31.10;;;;;;;12.30;87.69;98482.64;88011;1283;22576;-75
2022/10/01 09:32:17;;;;;;;70.50;31.20;;;;;;;12.35;87.71;98483.06;88127;1283;99701;-75
2022/10/01 09:34:36;;;;;;;61.80;30.70;;;;;;;12.36;87.75;98481.53;88057;1284;22888;-74
2022/10/01 09:37:22;;;;;;;54.50;30.20;;;;;;;12.40;87.60;98482.90;88069;1283;22743;-75
2022/10/01 09:39:26;;;;;;;56.20;32.70;;;;;;;12.43;87.66;98477.23;87969;1283;99141;-75
2022/10/01 09:41:30;;;;;;;57.70;30.60;;;;;;;12.49;87.57;98477.80;88501;1281;22590;-75